MiSS Sylvia — WDE5412 — position and weather

sailwx.info

Track history (hours):
 
Tides and Currents Weather Stations Pressure Air Temp Water Temp Dewpoint Dewpoint Depression Visibility Wind Speed Wind Dir Waves Ship Positions

MiSS Sylvia

Owner: DOUBLE J MARINE, LLC, LAPLACE, LA. More information available from US FCC via Universal Licensing System and Coast Guard Vessel Documentation Center.

Last reported at 2016-May-04 03:33 UTC. Time now 2016-May-04 04:09 UTC.
Position N 29°52' W 089°57'.

Length 20 m; draft 2.7 m.

Type: Towing. MMSI: 367366340.

Date/timePositionNaut miles runAvg speedWind from/ knotsBaromVisibWave heightAir tempDewpointWater temp
2016-May-04 03:33N 29°52' W 089°57'3 3.1
2016-May-04 02:34N 29°55' W 089°58'5 5.2
2016-May-04 01:34N 29°56' W 090°04'4 3.9
2016-May-04 00:33N 29°56' W 090°08'5 0.2
2016-May-02 23:23N 29°57' W 090°14'3 3.3
2016-May-02 22:32N 29°56' W 090°11'2 2.3
2016-May-02 21:33N 29°56' W 090°08'11 2.6
2016-May-02 17:24N 29°52' W 089°56'3 3.3
2016-May-02 16:33N 29°51' W 089°59'6 4.7
2016-May-02 15:22N 29°45' W 090°01'4 0.7
2016-May-02 09:33N 29°49' W 090°00'5 4.7
2016-May-02 08:34N 29°52' W 089°56'4 3.8
2016-May-02 07:34N 29°55' W 089°58'5 5.2
2016-May-02 06:33N 29°58' W 090°03'5 5.1
2016-May-02 05:33N 29°55' W 090°08'5 0.2
2016-May-01 00:24N 29°58' W 090°14'3 3.3
2016-Apr-30 23:33N 29°56' W 090°11'2 2.4
2016-Apr-30 22:34N 29°56' W 090°08'2 1.9
2016-Apr-30 21:33N 29°54' W 090°07'3 3.0
2016-Apr-30 20:33N 29°56' W 090°04'3 2.8
2016-Apr-30 19:33N 29°57' W 090°01'3 3.5
2016-Apr-30 18:33N 29°55' W 089°57'2 2.0
2016-Apr-30 17:33N 29°55' W 089°55'0 0.0
2016-Apr-30 16:33N 29°55' W 089°55'0 0.0
2016-Apr-30 15:33N 29°55' W 089°55'0 0.0
2016-Apr-30 14:33N 29°55' W 089°55'0 0.0
2016-Apr-30 13:33N 29°55' W 089°55'0 0.0
2016-Apr-30 12:33N 29°55' W 089°55'1 0.8
2016-Apr-30 11:31N 29°54' W 089°55'2 2.5
2016-Apr-30 10:34N 29°53' W 089°57'3 3.1
2016-Apr-30 09:30N 29°50' W 089°59'3 2.8
2016-Apr-30 08:33N 29°48' W 090°01'1 0.1
2016-Apr-29 18:33N 29°49' W 090°00'6 5.7
2016-Apr-29 17:32N 29°52' W 089°55'6 6.2
2016-Apr-29 16:33N 29°56' W 089°60'6 5.8
2016-Apr-29 15:33N 29°55' W 090°06'4 3.9
2016-Apr-29 14:33N 29°57' W 090°10'3 0.1
2016-Apr-28 02:33N 29°57' W 090°14'3 3.1
2016-Apr-28 01:33N 29°57' W 090°10'3 3.2
2016-Apr-28 00:33N 29°55' W 090°07'4 3.7
2016-Apr-27 23:30N 29°57' W 090°04'5 4.4
2016-Apr-27 22:26N 29°55' W 089°59'4 4.3
2016-Apr-27 21:33N 29°54' W 089°55'4 3.6
2016-Apr-27 20:34N 29°52' W 089°58'7 4.8
2016-Apr-27 19:12N 29°46' W 090°01'0 0.1
2016-Apr-27 14:19N 29°46' W 090°01'5 7.1
2016-Apr-27 13:33N 29°51' W 089°59'5 4.4
2016-Apr-27 12:30N 29°54' W 089°54'5 5.4
2016-Apr-27 11:34N 29°56' W 089°60'5 4.7
2016-Apr-27 10:33N 29°55' W 090°05'5 4.5
2016-Apr-27 09:33N 29°57' W 090°10'  
2016-Apr-24 13:32N 29°57' W 090°19'  
Track history (hours):
 
Tides and Currents Weather Stations Pressure Air Temp Water Temp Dewpoint Dewpoint Depression Visibility Wind Speed Wind Dir Waves Ship Positions

MiSS Sylvia

Owner: DOUBLE J MARINE, LLC, LAPLACE, LA. More information available from US FCC via Universal Licensing System and Coast Guard Vessel Documentation Center.

Last reported at 2016-May-04 03:33 UTC. Time now 2016-May-04 04:09 UTC.
Position N 29°52' W 089°57'.

Length 20 m; draft 2.7 m.

Type: Towing. MMSI: 367366340.

Date/timePositionNaut miles runAvg speedWind from/ knotsBaromVisibWave heightAir tempDewpointWater temp
2016-May-04 03:33N 29°52' W 089°57'3 3.1
2016-May-04 02:34N 29°55' W 089°58'5 5.2
2016-May-04 01:34N 29°56' W 090°04'4 3.9
2016-May-04 00:33N 29°56' W 090°08'5 0.2
2016-May-02 23:23N 29°57' W 090°14'3 3.3
2016-May-02 22:32N 29°56' W 090°11'2 2.3
2016-May-02 21:33N 29°56' W 090°08'11 2.6
2016-May-02 17:24N 29°52' W 089°56'3 3.3
2016-May-02 16:33N 29°51' W 089°59'6 4.7
2016-May-02 15:22N 29°45' W 090°01'4 0.7
2016-May-02 09:33N 29°49' W 090°00'5 4.7
2016-May-02 08:34N 29°52' W 089°56'4 3.8
2016-May-02 07:34N 29°55' W 089°58'5 5.2
2016-May-02 06:33N 29°58' W 090°03'5 5.1
2016-May-02 05:33N 29°55' W 090°08'5 0.2
2016-May-01 00:24N 29°58' W 090°14'3 3.3
2016-Apr-30 23:33N 29°56' W 090°11'2 2.4
2016-Apr-30 22:34N 29°56' W 090°08'2 1.9
2016-Apr-30 21:33N 29°54' W 090°07'3 3.0
2016-Apr-30 20:33N 29°56' W 090°04'3 2.8
2016-Apr-30 19:33N 29°57' W 090°01'3 3.5
2016-Apr-30 18:33N 29°55' W 089°57'2 2.0
2016-Apr-30 17:33N 29°55' W 089°55'0 0.0
2016-Apr-30 16:33N 29°55' W 089°55'0 0.0
2016-Apr-30 15:33N 29°55' W 089°55'0 0.0
2016-Apr-30 14:33N 29°55' W 089°55'0 0.0
2016-Apr-30 13:33N 29°55' W 089°55'0 0.0
2016-Apr-30 12:33N 29°55' W 089°55'1 0.8
2016-Apr-30 11:31N 29°54' W 089°55'2 2.5
2016-Apr-30 10:34N 29°53' W 089°57'3 3.1
2016-Apr-30 09:30N 29°50' W 089°59'3 2.8
2016-Apr-30 08:33N 29°48' W 090°01'1 0.1
2016-Apr-29 18:33N 29°49' W 090°00'6 5.7
2016-Apr-29 17:32N 29°52' W 089°55'6 6.2
2016-Apr-29 16:33N 29°56' W 089°60'6 5.8
2016-Apr-29 15:33N 29°55' W 090°06'4 3.9
2016-Apr-29 14:33N 29°57' W 090°10'3 0.1
2016-Apr-28 02:33N 29°57' W 090°14'3 3.1
2016-Apr-28 01:33N 29°57' W 090°10'3 3.2
2016-Apr-28 00:33N 29°55' W 090°07'4 3.7
2016-Apr-27 23:30N 29°57' W 090°04'5 4.4
2016-Apr-27 22:26N 29°55' W 089°59'4 4.3
2016-Apr-27 21:33N 29°54' W 089°55'4 3.6
2016-Apr-27 20:34N 29°52' W 089°58'7 4.8
2016-Apr-27 19:12N 29°46' W 090°01'0 0.1
2016-Apr-27 14:19N 29°46' W 090°01'5 7.1
2016-Apr-27 13:33N 29°51' W 089°59'5 4.4
2016-Apr-27 12:30N 29°54' W 089°54'5 5.4
2016-Apr-27 11:34N 29°56' W 089°60'5 4.7
2016-Apr-27 10:33N 29°55' W 090°05'5 4.5
2016-Apr-27 09:33N 29°57' W 090°10'  
2016-Apr-24 13:32N 29°57' W 090°19'  

Dump ship's entire track history